HRYR

Kigali International Airport

Kigali, Rwanda
TAF HRYR 251100Z 2512/2618 14006KT 9999 FEW023CB BKN025 TEMPO 2514/2520 10010G20KT -TSRA FEW022CB BKN023 FM252200 30004KT -RA BKN026 SCT100 BECMG 2603/2606 VRB03KT 7000 SCT026 BKN100 FM260900 16008KT 9999 BKN025 TEMPO 2612/2617 18010G20KT -TSRA FEW023CB BKN025
Issued Valid From Valid To
Apr-25 @ 11:00 UTC
(7 hours ago)
Apr-25 @ 12:00 UTC
(6 hours ago)
Apr-26 @ 18:00 UTC
(in 24 hours)
Apr-25 @ 12:00 to Apr-25 @ 22:00
TAF HRYR 251100Z 2512/2618 14006KT 9999 FEW023CB BKN025
Wind Visibility Clouds
140° at 6 knots 10,000+ meters
  • Few at 2,300' AGL
  • Broken at 2,500' AGL
Temporary Apr-25 @ 14:00 to Apr-25 @ 20:00
TEMPO 2514/2520 10010G20KT -TSRA FEW022CB BKN023
Wind Clouds Conditions
100° at 10 knots
 Gusting to 20 knots
  • Few at 2,200' AGL
  • Broken at 2,300' AGL
  • Light Thunderstorm
  • Light Rain
From Apr-25 @ 22:00 to Apr-26 @ 03:00
FM252200 30004KT -RA BKN026 SCT100
Wind Clouds Conditions
300° at 4 knots
  • Broken at 2,600' AGL
  • Scattered at 10,000' AGL
  • Light Rain
Becoming Apr-26 @ 03:00 to Apr-26 @ 09:00
BECMG 2603/2606 VRB03KT 7000 SCT026 BKN100
Wind Visibility Clouds Conditions
Variable at 3 knots 7,001 meters
  • Scattered at 2,600' AGL
  • Broken at 10,000' AGL
  • Light Rain
From Apr-26 @ 09:00 to Apr-26 @ 18:00
FM260900 16008KT 9999 BKN025
Wind Visibility Clouds
160° at 8 knots 10,000+ meters
  • Broken at 2,500' AGL
Temporary Apr-26 @ 12:00 to Apr-26 @ 17:00
TEMPO 2612/2617 18010G20KT -TSRA FEW023CB BKN025
Wind Clouds Conditions
180° at 10 knots
 Gusting to 20 knots
  • Few at 2,300' AGL
  • Broken at 2,500' AGL
  • Light Thunderstorm
  • Light Rain
TAF HRYR 251100Z 2512/2618 14006KT 9999 FEW023CB BKN025 TEMPO 2514/2520 10010G20KT -TSRA FEW022CB BKN023 FM252200 30004KT -RA BKN026 SCT100 BECMG 2603/2606 VRB03KT 7000 SCT026 BKN100 FM260900 16008KT 9999 BKN025 TEMPO 2612/2617 18010G20KT -TSRA FEW023CB BKN025
Issued Apr-25 @ 11:00 UTC
(7 hours ago)
Valid From Apr-25 @ 12:00 UTC
(6 hours ago)
Valid To Apr-26 @ 18:00 UTC
(in 24 hours)
Apr-25 @ 12:00 - Apr-25 @ 22:00
Wind Visibility
140° at 6 knots 10,000+ meters
Clouds
  • Few at 2,300' AGL
  • Broken at 2,500' AGL
Temporary Apr-25 @ 14:00 - Apr-25 @ 20:00
Wind
100° at 10 knots
 Gusting to 20 knots
Clouds
  • Few at 2,200' AGL
  • Broken at 2,300' AGL
Conditions
  • Light Thunderstorm
  • Light Rain
From Apr-25 @ 22:00 - Apr-26 @ 03:00
Wind
300° at 4 knots
Clouds
  • Broken at 2,600' AGL
  • Scattered at 10,000' AGL
Conditions
  • Light Rain
Becoming Apr-26 @ 03:00 - Apr-26 @ 09:00
Wind Visibility
Variable at 3 knots 7,001 meters
Clouds
  • Scattered at 2,600' AGL
  • Broken at 10,000' AGL
Conditions
  • Light Rain
From Apr-26 @ 09:00 - Apr-26 @ 18:00
Wind Visibility
160° at 8 knots 10,000+ meters
Clouds
  • Broken at 2,500' AGL
Temporary Apr-26 @ 12:00 - Apr-26 @ 17:00
Wind
180° at 10 knots
 Gusting to 20 knots
Clouds
  • Few at 2,300' AGL
  • Broken at 2,500' AGL
Conditions
  • Light Thunderstorm
  • Light Rain